createdAt,value
2023-08-15T00:01:05.426Z,12.23
2023-08-15T00:06:08.520Z,11.27
2023-08-15T00:11:11.329Z,11.57
2023-08-15T00:16:15.726Z,11.20
2023-08-15T00:21:18.587Z,11.27
2023-08-15T00:26:21.411Z,11.37
2023-08-15T00:31:25.647Z,11.93
2023-08-15T00:36:28.457Z,11.77
2023-08-15T00:41:31.898Z,10.60
2023-08-15T00:46:36.625Z,13.10
2023-08-15T00:51:39.903Z,11.10
2023-08-15T00:56:43.004Z,10.47
2023-08-15T01:01:47.559Z,11.83
2023-08-15T01:06:51.193Z,11.97
2023-08-15T01:12:03.057Z,12.30
2023-08-15T01:17:11.262Z,11.27
2023-08-15T01:22:18.642Z,12.10
2023-08-15T01:27:23.001Z,11.97
2023-08-15T01:32:38.883Z,12.30
2023-08-15T01:37:46.156Z,12.93
2023-08-15T01:42:51.551Z,11.90
2023-08-15T01:47:54.584Z,11.50
2023-08-15T01:52:58.318Z,12.43
2023-08-15T01:58:02.497Z,12.07
2023-08-15T02:03:05.965Z,11.43
2023-08-15T02:08:08.862Z,11.30
2023-08-15T02:13:13.049Z,11.10
2023-08-15T02:18:16.042Z,12.20
2023-08-15T02:23:18.913Z,11.30
2023-08-15T02:28:23.076Z,12.10
2023-08-15T02:33:25.948Z,11.67
2023-08-15T02:38:28.775Z,11.57
2023-08-15T02:43:33.088Z,13.03
2023-08-15T02:48:35.981Z,11.57
2023-08-15T02:53:38.804Z,12.77
2023-08-15T02:58:43.019Z,10.70
2023-08-15T03:03:45.863Z,11.03
2023-08-15T03:08:48.769Z,11.63
2023-08-15T03:13:53.008Z,13.17
2023-08-15T03:18:56.017Z,11.27
2023-08-15T03:23:58.876Z,12.13
2023-08-15T03:29:03.063Z,12.37
2023-08-15T03:34:06.100Z,12.23
2023-08-15T03:39:08.951Z,15.20
2023-08-15T03:44:13.167Z,11.90
2023-08-15T03:49:16.008Z,10.40
2023-08-15T03:54:18.820Z,12.70
2023-08-15T03:59:22.994Z,12.67
2023-08-15T04:04:25.795Z,11.83
2023-08-15T04:09:28.658Z,11.40
2023-08-15T04:14:32.830Z,12.70
2023-08-15T04:19:35.642Z,13.20
2023-08-15T04:24:38.416Z,11.43
2023-08-15T04:29:42.624Z,13.50
2023-08-15T04:34:46.584Z,12.27
2023-08-15T04:39:50.234Z,12.90
2023-08-15T04:44:54.516Z,13.83
2023-08-15T04:49:57.325Z,14.53
2023-08-15T04:55:00.195Z,12.90
2023-08-15T05:00:07.435Z,13.30
2023-08-15T05:05:11.769Z,14.70
2023-08-15T05:10:14.674Z,14.87
2023-08-15T05:15:19.219Z,15.97
2023-08-15T05:20:22.098Z,14.43
2023-08-15T05:25:25.566Z,13.00
2023-08-15T05:30:29.792Z,15.53
2023-08-15T05:35:33.071Z,14.30
2023-08-15T05:40:35.885Z,14.47
2023-08-15T05:45:40.073Z,16.27
2023-08-15T05:50:42.926Z,15.67
2023-08-15T05:55:45.748Z,14.60
2023-08-15T06:00:50.067Z,14.57
2023-08-15T06:05:52.945Z,14.70
2023-08-15T06:10:55.785Z,12.87
2023-08-15T06:15:59.989Z,14.53
2023-08-15T06:21:02.899Z,13.63
2023-08-15T06:26:05.938Z,12.63
2023-08-15T06:31:10.441Z,16.73
2023-08-15T06:36:13.344Z,12.63
2023-08-15T06:41:16.323Z,14.93
2023-08-15T06:46:20.561Z,11.40
2023-08-15T06:51:23.591Z,10.33
2023-08-15T06:56:26.679Z,11.03
2023-08-15T07:01:30.896Z,12.50
2023-08-15T07:06:33.758Z,10.43
2023-08-15T07:11:36.628Z,11.80
2023-08-15T07:16:40.886Z,10.20
2023-08-15T07:21:43.852Z,12.63
2023-08-15T07:26:47.290Z,11.07
2023-08-15T07:31:52.330Z,10.17
2023-08-15T07:36:55.350Z,9.83
2023-08-15T07:41:58.147Z,9.40
2023-08-15T07:47:02.434Z,10.97
2023-08-15T07:52:05.694Z,11.20
2023-08-15T07:57:08.512Z,8.87
2023-08-15T08:02:12.680Z,10.30
2023-08-15T08:07:15.567Z,10.50
2023-08-15T08:12:18.583Z,9.77
2023-08-15T08:17:23.620Z,10.50
2023-08-15T08:22:26.529Z,9.20
2023-08-15T08:27:29.372Z,9.20
2023-08-15T08:32:33.569Z,8.60
2023-08-15T08:37:36.670Z,8.70
2023-08-15T08:42:39.740Z,9.83
2023-08-15T08:47:46.935Z,9.27
2023-08-15T08:52:50.937Z,9.30
2023-08-15T08:57:55.660Z,9.10
2023-08-15T09:03:00.763Z,10.67
2023-08-15T09:08:05.380Z,8.30
2023-08-15T09:13:08.268Z,9.57
2023-08-15T09:18:13.992Z,10.07
2023-08-15T09:23:17.838Z,9.03
2023-08-15T09:28:22.140Z,10.10
2023-08-15T09:33:26.942Z,9.53
2023-08-15T09:38:29.981Z,9.67
2023-08-15T09:43:33.462Z,9.47
2023-08-15T09:48:37.886Z,8.80
2023-08-15T09:53:41.412Z,9.37
2023-08-15T09:58:44.670Z,8.50
2023-08-15T10:03:50.923Z,9.20
2023-08-15T10:08:54.647Z,8.97
2023-08-15T10:13:58.525Z,8.60
2023-08-15T10:19:04.199Z,8.07
2023-08-15T10:24:10.959Z,8.53
2023-08-15T10:29:14.776Z,9.33
2023-08-15T10:34:20.288Z,9.67
2023-08-15T10:39:23.270Z,9.23
2023-08-15T10:44:26.087Z,8.37
2023-08-15T10:49:30.346Z,10.07
2023-08-15T10:54:33.531Z,8.70
2023-08-15T10:59:38.347Z,10.07
2023-08-15T11:04:42.964Z,10.23
2023-08-15T11:09:45.937Z,9.80
2023-08-15T11:14:51.507Z,9.30
2023-08-15T11:19:56.003Z,10.60
2023-08-15T11:24:58.879Z,10.30
2023-08-15T11:30:01.700Z,10.03
2023-08-15T11:35:06.705Z,9.33
2023-08-15T11:40:10.416Z,9.30
2023-08-15T11:45:19.806Z,10.30
2023-08-15T11:50:37.946Z,9.13
2023-08-15T11:55:47.709Z,10.27
2023-08-15T12:00:52.796Z,10.03
2023-08-15T12:05:58.324Z,10.70
2023-08-15T12:11:04.473Z,12.20
2023-08-15T12:16:08.800Z,9.73
2023-08-15T12:21:14.253Z,10.63
2023-08-15T12:26:18.054Z,10.40
2023-08-15T12:31:20.934Z,9.60
2023-08-15T12:36:25.198Z,10.10
2023-08-15T12:41:28.014Z,10.17
2023-08-15T12:46:30.872Z,10.53
2023-08-15T12:51:35.145Z,10.90
2023-08-15T12:56:39.041Z,9.93
2023-08-15T13:01:42.416Z,10.80
2023-08-15T13:06:46.780Z,10.73
2023-08-15T13:11:49.706Z,10.87
2023-08-15T13:16:52.649Z,10.00
2023-08-15T13:21:57.349Z,9.30
2023-08-15T13:27:00.199Z,9.80
2023-08-15T13:32:03.065Z,10.40
2023-08-15T13:37:07.256Z,10.60
2023-08-15T13:42:14.836Z,10.80
2023-08-15T13:47:26.341Z,10.53
2023-08-15T13:52:30.978Z,10.57
2023-08-15T13:57:34.692Z,9.70
2023-08-15T14:02:39.247Z,9.20
2023-08-15T14:07:44.702Z,10.10
2023-08-15T14:12:48.704Z,10.23
2023-08-15T14:17:51.915Z,8.67
2023-08-15T14:22:58.764Z,9.63
2023-08-15T14:28:02.713Z,9.93
2023-08-15T14:33:06.432Z,10.37
2023-08-15T14:38:12.150Z,8.93
2023-08-15T14:43:15.352Z,9.57
2023-08-15T14:48:18.407Z,9.47
2023-08-15T14:53:22.626Z,10.00
2023-08-15T14:58:25.535Z,9.03
2023-08-15T15:03:28.647Z,9.20
2023-08-15T15:08:33.039Z,9.33
2023-08-15T15:13:35.970Z,10.13
2023-08-15T15:18:38.884Z,9.40
2023-08-15T15:23:43.258Z,9.40
2023-08-15T15:28:46.112Z,8.53
2023-08-15T15:33:48.982Z,8.30
2023-08-15T15:38:54.532Z,7.93
2023-08-15T15:43:58.334Z,8.50
2023-08-15T15:49:01.194Z,9.63
2023-08-15T15:54:06.097Z,10.07
2023-08-15T15:59:08.976Z,11.10
2023-08-15T16:04:12.802Z,10.37
2023-08-15T16:09:17.265Z,9.80
2023-08-15T16:14:20.215Z,11.07
2023-08-15T16:19:23.109Z,9.90
2023-08-15T16:24:27.435Z,10.20
2023-08-15T16:29:30.274Z,11.30
2023-08-15T16:34:33.267Z,10.57
2023-08-15T16:39:37.656Z,9.27
2023-08-15T16:44:40.546Z,9.40
2023-08-15T16:49:46.875Z,9.10
2023-08-15T16:54:53.878Z,9.30
2023-08-15T16:59:59.156Z,10.77
2023-08-15T17:05:04.549Z,9.07
2023-08-15T17:10:12.499Z,9.63
2023-08-15T17:15:20.089Z,10.13
2023-08-15T17:20:25.529Z,10.60
2023-08-15T17:25:32.675Z,10.60
2023-08-15T17:30:38.506Z,21.30
2023-08-15T17:35:44.489Z,19.30
2023-08-15T17:40:51.732Z,9.03
2023-08-15T17:45:58.654Z,13.60
2023-08-15T17:51:05.133Z,10.30
2023-08-15T17:56:12.346Z,10.70
2023-08-15T18:01:18.118Z,14.50
2023-08-15T18:06:25.260Z,10.33
2023-08-15T18:11:32.352Z,11.80
2023-08-15T18:16:37.863Z,11.17
2023-08-15T18:21:43.385Z,10.03
2023-08-15T18:26:50.438Z,11.20
2023-08-15T18:31:55.698Z,10.57
2023-08-15T18:37:01.240Z,12.47
2023-08-15T18:42:08.862Z,11.53
2023-08-15T18:47:16.904Z,11.37
2023-08-15T18:52:23.342Z,12.10
2023-08-15T18:57:30.855Z,12.00
2023-08-15T19:02:36.930Z,11.80
2023-08-15T19:07:43.798Z,12.37
2023-08-15T19:12:50.894Z,12.70
2023-08-15T19:17:56.159Z,12.93
2023-08-15T19:23:01.607Z,11.43
2023-08-15T19:28:09.871Z,12.43
2023-08-15T19:33:15.250Z,11.97
2023-08-15T19:38:20.686Z,12.63
2023-08-15T19:43:27.926Z,13.70
2023-08-15T19:48:33.979Z,13.20
2023-08-15T19:53:39.271Z,14.73
2023-08-15T19:58:45.988Z,12.73
2023-08-15T20:03:51.168Z,13.17
2023-08-15T20:08:56.350Z,13.50
2023-08-15T20:14:03.089Z,12.37
2023-08-15T20:19:08.733Z,13.70
2023-08-15T20:24:13.555Z,14.20
2023-08-15T20:29:19.785Z,13.20
2023-08-15T20:34:24.804Z,13.10
2023-08-15T20:39:29.101Z,13.70
2023-08-15T20:44:34.259Z,14.70
2023-08-15T20:49:37.314Z,13.83
2023-08-15T20:54:40.240Z,13.83
2023-08-15T20:59:44.510Z,14.80
2023-08-15T21:04:47.379Z,13.67
2023-08-15T21:09:50.368Z,13.97
2023-08-15T21:14:54.636Z,13.40
2023-08-15T21:19:57.463Z,14.27
2023-08-15T21:25:00.832Z,14.57
2023-08-15T21:30:05.453Z,14.30
2023-08-15T21:35:08.804Z,13.40
2023-08-15T21:40:12.473Z,14.73
2023-08-15T21:45:17.035Z,15.50
2023-08-15T21:50:20.021Z,12.90
2023-08-15T21:55:22.828Z,14.00
2023-08-15T22:00:28.716Z,15.30
2023-08-15T22:05:31.554Z,15.63
2023-08-15T22:10:34.473Z,14.97
2023-08-15T22:15:38.688Z,13.23
2023-08-15T22:20:41.533Z,13.93
2023-08-15T22:25:46.149Z,14.83
2023-08-15T22:30:50.427Z,15.73
2023-08-15T22:35:53.437Z,13.03
2023-08-15T22:40:56.287Z,15.30
2023-08-15T22:46:00.592Z,15.93
2023-08-15T22:51:03.964Z,14.93
2023-08-15T22:56:06.759Z,14.17
2023-08-15T23:01:11.156Z,13.80
2023-08-15T23:06:13.974Z,16.03
2023-08-15T23:11:18.479Z,16.63
2023-08-15T23:16:22.803Z,15.53
2023-08-15T23:21:25.648Z,17.73
2023-08-15T23:26:28.501Z,17.60
2023-08-15T23:31:36.670Z,16.03
2023-08-15T23:36:39.747Z,16.27
2023-08-15T23:41:42.691Z,15.77
2023-08-15T23:46:46.948Z,14.97
2023-08-15T23:51:49.957Z,14.77
2023-08-15T23:56:52.832Z,13.73
